Time;durP1;ratioP1;P1;durP2;ratioP2;P2;SDS_P1;SDS_P2;PMS_P1;PMS_P2;Temp;Humidity;BMP_temperature;BMP_pressure;BME280_temperature;BME280_humidity;BME280_pressure;Samples;Min_cycle;Max_cycle;Signal;HPM_P1;HPM_P2
2021/10/27 00:09:00;;;;;;;5.20;2.03;;;17.80;67.70;;;;;;10350779;28;20174;-66
2021/10/27 00:14:23;;;;;;;2.73;1.70;;;17.70;67.90;;;;;;10372761;28;20226;-66
2021/10/27 00:19:45;;;;;;;2.37;1.33;;;17.80;68.00;;;;;;10355399;28;20219;-66
2021/10/27 00:25:09;;;;;;;3.77;1.63;;;17.80;68.00;;;;;;10359265;28;20209;-66
2021/10/27 00:30:32;;;;;;;5.10;1.83;;;17.80;67.70;;;;;;10372812;28;20234;-66
2021/10/27 00:35:54;;;;;;;3.53;1.70;;;17.80;67.60;;;;;;10371225;28;20206;-67
2021/10/27 00:41:17;;;;;;;6.07;2.10;;;17.80;67.60;;;;;;10369922;28;20226;-65
2021/10/27 00:46:40;;;;;;;3.07;1.70;;;17.80;67.70;;;;;;10371208;28;20209;-66
2021/10/27 00:52:05;;;;;;;4.17;1.90;;;17.80;67.90;;;;;;10368050;28;20225;-66
2021/10/27 00:57:27;;;;;;;3.57;1.93;;;17.80;67.90;;;;;;10332092;28;20293;-66
2021/10/27 01:02:51;;;;;;;5.40;1.87;;;17.80;68.00;;;;;;10329339;28;20215;-66
2021/10/27 01:08:14;;;;;;;4.03;1.80;;;17.80;67.90;;;;;;10330234;28;20195;-66
2021/10/27 01:13:36;;;;;;;3.83;2.10;;;17.90;67.90;;;;;;10329735;28;20301;-66
2021/10/27 01:18:59;;;;;;;5.07;1.63;;;17.80;67.80;;;;;;10333866;28;20610;-66
2021/10/27 01:24:23;;;;;;;4.43;2.17;;;17.80;67.90;;;;;;10354295;28;20222;-66
2021/10/27 01:29:45;;;;;;;4.30;2.03;;;17.70;68.00;;;;;;10369023;28;20720;-64
2021/10/27 01:35:08;;;;;;;3.50;2.10;;;17.80;68.30;;;;;;10370153;28;20202;-66
2021/10/27 01:40:32;;;;;;;2.90;1.93;;;17.70;68.20;;;;;;10369463;28;20218;-67
2021/10/27 01:45:54;;;;;;;4.37;2.20;;;17.70;68.30;;;;;;10369600;28;20198;-66
2021/10/27 01:51:16;;;;;;;4.10;1.93;;;17.70;68.40;;;;;;10368307;28;20221;-63
2021/10/27 01:56:40;;;;;;;3.63;2.10;;;17.80;68.40;;;;;;10368693;28;20669;-66
2021/10/27 02:02:02;;;;;;;6.30;2.53;;;17.80;68.40;;;;;;10354117;28;20594;-66
2021/10/27 02:07:24;;;;;;;5.00;2.63;;;17.80;68.40;;;;;;10349998;28;20225;-66
2021/10/27 02:12:48;;;;;;;4.97;2.80;;;17.80;68.30;;;;;;10327327;28;20260;-67
2021/10/27 02:18:10;;;;;;;4.30;2.73;;;17.80;68.40;;;;;;10328769;28;20230;-66
2021/10/27 02:23:32;;;;;;;5.20;3.00;;;17.80;68.50;;;;;;10354284;28;20230;-66
2021/10/27 02:28:55;;;;;;;3.57;2.40;;;17.70;68.60;;;;;;10367840;28;20190;-66
2021/10/27 02:34:18;;;;;;;3.30;2.57;;;17.70;68.60;;;;;;10368291;28;20217;-66
2021/10/27 02:39:40;;;;;;;4.27;2.67;;;17.80;68.60;;;;;;10367623;28;20864;-66
2021/10/27 02:45:04;;;;;;;6.70;3.30;;;17.80;68.50;;;;;;10367973;28;20693;-66
2021/10/27 02:50:26;;;;;;;4.53;2.43;;;17.80;68.50;;;;;;10364946;28;20218;-66
2021/10/27 02:55:48;;;;;;;5.30;3.10;;;17.80;68.60;;;;;;10328182;28;20207;-66
2021/10/27 03:01:12;;;;;;;3.67;2.90;;;17.80;68.70;;;;;;10327333;28;20231;-66
2021/10/27 03:06:34;;;;;;;6.63;3.10;;;17.70;69.40;;;;;;10335397;28;20547;-68
2021/10/27 03:11:56;;;;;;;5.00;2.87;;;17.70;68.90;;;;;;10334420;28;20223;-66
2021/10/27 03:17:19;;;;;;;4.80;3.07;;;17.70;69.00;;;;;;10335624;28;20199;-64
2021/10/27 03:22:41;;;;;;;4.37;2.70;;;17.70;69.20;;;;;;10343030;28;20214;-66
2021/10/27 03:28:04;;;;;;;3.47;2.10;;;17.70;69.20;;;;;;10373974;28;20191;-66
2021/10/27 03:33:27;;;;;;;5.37;2.93;;;17.70;69.10;;;;;;10374189;28;20215;-66
2021/10/27 03:38:49;;;;;;;2.97;2.03;;;17.70;69.00;;;;;;10373728;28;20221;-66
2021/10/27 03:44:12;;;;;;;4.53;2.40;;;17.80;68.90;;;;;;10373749;28;20221;-66
2021/10/27 03:49:35;;;;;;;3.53;2.30;;;17.80;68.80;;;;;;10373479;28;20822;-66
2021/10/27 03:54:57;;;;;;;2.80;2.23;;;17.80;68.70;;;;;;10373461;28;20202;-66
2021/10/27 04:00:19;;;;;;;3.03;2.40;;;17.90;68.60;;;;;;10363618;28;20226;-66
2021/10/27 04:05:43;;;;;;;3.07;2.20;;;17.90;68.50;;;;;;10354256;28;20214;-66
2021/10/27 04:11:05;;;;;;;3.33;2.30;;;17.90;68.50;;;;;;10384789;23;20257;-63
2021/10/27 04:16:27;;;;;;;3.90;2.80;;;17.90;68.50;;;;;;10373598;28;20202;-64
2021/10/27 04:21:51;;;;;;;3.10;2.33;;;17.90;68.50;;;;;;10337754;28;20604;-64
2021/10/27 04:27:13;;;;;;;4.10;2.60;;;18.00;68.50;;;;;;10330914;28;20668;-67
2021/10/27 04:32:36;;;;;;;3.47;2.33;;;17.90;68.40;;;;;;10330430;28;20215;-66
2021/10/27 04:37:59;;;;;;;3.90;2.73;;;18.00;68.40;;;;;;10331357;28;20222;-66
2021/10/27 04:43:22;;;;;;;3.70;2.37;;;18.00;68.40;;;;;;10330035;28;20196;-67
2021/10/27 04:48:44;;;;;;;5.63;3.17;;;18.00;68.40;;;;;;10330255;28;20215;-65
2021/10/27 04:54:07;;;;;;;5.60;2.93;;;18.00;68.40;;;;;;10328561;28;20243;-66
2021/10/27 04:59:36;;;;;;;5.73;2.97;;;18.00;68.40;;;;;;10342484;28;20592;-66
2021/10/27 05:04:58;;;;;;;4.47;2.83;;;18.00;68.40;;;;;;10330057;28;20274;-66
2021/10/27 05:10:21;;;;;;;4.37;2.90;;;18.00;68.40;;;;;;10329179;28;20211;-65
2021/10/27 05:15:43;;;;;;;4.00;2.50;;;18.00;68.40;;;;;;10330538;28;20226;-67
2021/10/27 05:21:05;;;;;;;5.17;2.70;;;18.00;68.50;;;;;;10329469;28;20219;-66
2021/10/27 05:26:29;;;;;;;3.23;2.70;;;18.00;68.50;;;;;;10329632;28;20203;-66
2021/10/27 05:31:51;;;;;;;4.00;2.67;;;18.00;68.50;;;;;;10329204;28;20707;-67
2021/10/27 05:37:13;;;;;;;3.87;2.67;;;18.10;68.70;;;;;;10328692;28;20214;-66
2021/10/27 05:42:39;;;;;;;4.93;2.60;;;18.10;68.70;;;;;;10328332;28;20218;-66
2021/10/27 05:48:02;;;;;;;5.43;2.93;;;18.10;68.70;;;;;;10327562;28;20195;-67
2021/10/27 05:59:05;;;;;;;4.47;2.47;;;18.10;68.80;;;;;;10320229;28;20228;-65
2021/10/27 06:04:27;;;;;;;4.50;2.63;;;18.10;68.80;;;;;;10326375;28;20214;-63
2021/10/27 06:09:50;;;;;;;3.30;2.60;;;18.00;68.80;;;;;;10327230;28;20218;-65
2021/10/27 06:15:13;;;;;;;5.37;2.80;;;18.10;68.90;;;;;;10326784;28;20681;-66
2021/10/27 06:20:35;;;;;;;3.70;2.57;;;18.10;69.00;;;;;;10327891;28;20243;-67
2021/10/27 06:25:58;;;;;;;3.27;2.80;;;18.10;69.00;;;;;;10326336;28;20199;-65
2021/10/27 06:31:26;;;;;;;6.03;3.10;;;18.10;69.10;;;;;;10325651;28;20219;-63
2021/10/27 06:48:17;;;;;;;4.40;3.00;;;18.10;69.20;;;;;;10333239;28;20277;-66
2021/10/27 06:53:39;;;;;;;5.30;2.77;;;18.10;69.20;;;;;;10327710;28;20203;-63
2021/10/27 06:59:08;;;;;;;3.50;2.87;;;18.10;69.30;;;;;;10323311;28;20234;-63
2021/10/27 07:15:50;;;;;;;3.40;2.53;;;18.10;71.10;;;;;;10301138;28;20192;-63
2021/10/27 07:21:14;;;;;;;5.70;3.00;;;18.10;71.50;;;;;;10327579;28;20223;-63
2021/10/27 07:26:37;;;;;;;3.43;2.90;;;18.10;71.30;;;;;;10332798;28;20202;-62
2021/10/27 07:32:00;;;;;;;5.50;2.90;;;18.10;71.20;;;;;;10331093;28;20587;-62
2021/10/27 07:43:08;;;;;;;3.83;2.63;;;18.20;70.60;;;;;;10327370;28;20204;-63
2021/10/27 07:48:30;;;;;;;3.10;2.63;;;18.20;70.10;;;;;;10327679;28;20215;-62
2021/10/27 07:53:54;;;;;;;4.43;3.00;;;18.20;70.60;;;;;;10318352;28;20206;-63
2021/10/27 07:59:18;;;;;;;4.07;2.90;;;18.20;70.10;;;;;;10329031;28;20231;-62
2021/10/27 08:04:40;;;;;;;3.47;2.27;;;18.20;70.00;;;;;;10320795;28;20205;-63
2021/10/27 08:10:04;;;;;;;2.97;2.67;;;18.20;70.30;;;;;;10329094;28;20570;-63
2021/10/27 08:15:26;;;;;;;3.13;2.70;;;18.20;70.10;;;;;;10333746;28;20542;-63
2021/10/27 08:20:51;;;;;;;3.70;2.60;;;18.30;70.30;;;;;;10336596;28;20723;-62
2021/10/27 08:26:18;;;;;;;3.07;2.40;;;18.20;70.40;;;;;;10323412;28;20210;-63
2021/10/27 08:31:41;;;;;;;4.23;2.43;;;18.30;70.20;;;;;;10327195;28;20303;-63
2021/10/27 08:37:03;;;;;;;5.33;2.33;;;18.20;70.00;;;;;;10326322;28;20230;-63
2021/10/27 08:42:28;;;;;;;3.10;2.43;;;18.20;70.00;;;;;;10322081;28;20250;-63
2021/10/27 08:47:52;;;;;;;2.97;2.27;;;18.30;70.50;;;;;;10313869;28;20777;-63
2021/10/27 08:53:15;;;;;;;1.80;1.70;;;18.30;70.70;;;;;;10319520;28;20203;-62
2021/10/27 08:58:41;;;;;;;2.87;1.80;;;18.30;70.60;;;;;;10313810;28;20223;-63
2021/10/27 09:04:14;;;;;;;2.47;2.17;;;18.20;70.50;;;;;;10328537;28;20195;-62
2021/10/27 09:15:43;;;;;;;2.40;1.87;;;18.20;70.80;;;;;;10314857;28;20205;-63
2021/10/27 09:38:35;;;;;;;1.60;1.50;;;18.30;71.30;;;;;;10326704;28;20203;-63
2021/10/27 09:44:19;;;;;;;3.17;2.30;;;18.30;71.50;;;;;;10303955;28;20207;-64
2021/10/27 09:56:22;;;;;;;2.23;2.00;;;18.40;70.90;;;;;;10327206;28;20203;-63
2021/10/27 10:07:35;;;;;;;2.20;2.00;;;18.30;70.90;;;;;;10286980;28;20188;-62
2021/10/27 10:12:57;;;;;;;2.60;2.27;;;18.30;71.10;;;;;;10347383;23;20235;-65
2021/10/27 10:18:22;;;;;;;2.33;2.13;;;18.30;70.90;;;;;;10332420;28;20195;-65
2021/10/27 10:23:46;;;;;;;2.17;1.83;;;18.30;70.90;;;;;;10323771;28;20571;-65
2021/10/27 10:29:08;;;;;;;2.90;2.23;;;18.30;70.90;;;;;;10336493;28;20234;-65
2021/10/27 10:34:44;;;;;;;3.97;2.37;;;18.40;71.00;;;;;;10336639;28;20223;-64
2021/10/27 10:40:43;;;;;;;2.40;1.80;;;18.30;70.90;;;;;;10324688;28;20713;-65
2021/10/27 10:55:35;;;;;;;3.07;2.00;;;18.30;70.90;;;;;;10324193;28;20199;-65
2021/10/27 10:58:11;;;;;;;2.40;2.20;;;18.30;70.90;;;;;;10322114;28;20270;-65
2021/10/27 11:03:48;;;;;;;3.33;2.23;;;18.30;70.90;;;;;;10335512;28;20232;-65
2021/10/27 11:26:57;;;;;;;3.23;2.30;;;18.30;70.90;;;;;;10311241;28;20253;-65
2021/10/27 11:38:22;;;;;;;3.90;2.60;;;18.30;70.90;;;;;;10334852;28;20270;-65
2021/10/27 11:43:56;;;;;;;3.30;2.40;;;18.30;70.90;;;;;;10307515;28;20667;-65
2021/10/27 11:49:24;;;;;;;3.97;2.40;;;18.30;71.10;;;;;;10337599;28;20198;-65
2021/10/27 11:54:56;;;;;;;2.13;1.80;;;18.30;71.00;;;;;;10344811;28;20215;-66
2021/10/27 12:00:26;;;;;;;4.17;2.50;;;18.30;71.30;;;;;;10332562;28;20690;-66
2021/10/27 12:05:53;;;;;;;2.67;1.87;;;18.30;71.50;;;;;;10323764;28;20768;-65
2021/10/27 12:11:29;;;;;;;3.20;1.93;;;18.30;71.30;;;;;;10331120;28;20183;-66
2021/10/27 12:17:13;;;;;;;1.70;1.50;;;18.30;71.10;;;;;;10333837;28;20544;-66
2021/10/27 12:22:36;;;;;;;3.30;1.60;;;18.40;71.20;;;;;;10329731;28;20230;-66
2021/10/27 12:28:03;;;;;;;2.30;1.53;;;18.30;71.20;;;;;;10334568;28;20666;-66
2021/10/27 12:33:38;;;;;;;2.07;1.47;;;18.30;71.20;;;;;;10332004;28;20715;-67
2021/10/27 12:39:06;;;;;;;2.00;1.50;;;18.30;71.00;;;;;;10331119;28;20717;-67
2021/10/27 12:44:31;;;;;;;2.03;1.30;;;18.30;71.20;;;;;;10330947;28;20300;-66
2021/10/27 12:50:05;;;;;;;2.50;1.70;;;18.30;72.00;;;;;;10325768;28;20254;-67
2021/10/27 12:55:31;;;;;;;4.10;1.80;;;18.30;71.00;;;;;;10346441;28;20634;-65
2021/10/27 13:01:00;;;;;;;2.53;1.40;;;18.30;71.10;;;;;;10331011;28;20588;-67
2021/10/27 13:12:18;;;;;;;3.87;1.60;;;18.30;71.20;;;;;;10322268;28;20210;-67
2021/10/27 13:34:45;;;;;;;2.70;1.50;;;18.40;71.80;;;;;;10330607;28;20555;-66
2021/10/27 13:40:09;;;;;;;3.27;1.47;;;18.40;71.50;;;;;;10328893;28;20567;-66
2021/10/27 13:45:35;;;;;;;6.63;1.73;;;18.40;71.40;;;;;;10329508;28;20226;-65
2021/10/27 14:08:04;;;;;;;4.43;1.50;;;18.40;71.30;;;;;;10321570;28;20187;-66
2021/10/27 14:13:38;;;;;;;1.83;1.20;;;18.30;71.20;;;;;;10328965;28;20215;-67
2021/10/27 14:19:17;;;;;;;2.50;1.30;;;18.40;71.10;;;;;;10328197;28;20528;-66
2021/10/27 14:47:37;;;;;;;2.33;1.33;;;18.30;71.00;;;;;;10325119;28;20552;-67
2021/10/27 14:59:12;;;;;;;2.33;1.10;;;18.40;71.10;;;;;;10329721;28;20274;-67
2021/10/27 15:21:46;;;;;;;1.27;0.83;;;18.30;70.90;;;;;;10318922;28;20231;-68
2021/10/27 15:33:03;;;;;;;1.30;1.00;;;18.40;71.10;;;;;;10334677;28;20283;-67
2021/10/27 15:55:22;;;;;;;2.40;1.10;;;18.40;71.00;;;;;;10335800;28;20362;-66
2021/10/27 16:00:45;;;;;;;4.17;1.63;;;18.40;71.30;;;;;;10332539;28;20223;-66
2021/10/27 16:06:09;;;;;;;1.97;1.40;;;18.40;71.10;;;;;;10331859;28;20206;-66
2021/10/27 16:16:32;;;;;;;3.03;1.73;;;18.40;71.30;;;;;;10467523;23;20235;-65
2021/10/27 16:21:56;;;;;;;3.30;1.77;;;18.50;71.20;;;;;;10451705;28;20604;-66
2021/10/27 16:27:18;;;;;;;4.13;2.00;;;18.40;71.10;;;;;;10453742;28;20276;-65
2021/10/27 16:32:41;;;;;;;3.30;2.00;;;18.50;71.10;;;;;;10453853;28;20570;-65
2021/10/27 16:38:06;;;;;;;5.17;2.00;;;18.50;71.00;;;;;;10449394;28;20200;-65
2021/10/27 16:43:28;;;;;;;3.40;2.00;;;18.50;71.00;;;;;;10452023;28;20213;-65
2021/10/27 16:48:50;;;;;;;3.23;1.77;;;18.50;71.00;;;;;;10453285;28;20188;-65
2021/10/27 16:54:14;;;;;;;4.33;1.97;;;18.50;71.00;;;;;;10453221;28;20209;-66
2021/10/27 16:59:36;;;;;;;3.60;2.10;;;18.50;71.00;;;;;;10436438;28;20201;-65
2021/10/27 17:04:58;;;;;;;4.20;1.77;;;18.50;71.00;;;;;;10449927;28;20228;-65
2021/10/27 17:10:22;;;;;;;3.93;1.80;;;18.50;70.90;;;;;;10452045;28;20185;-65
2021/10/27 17:15:45;;;;;;;3.77;1.80;;;18.50;70.90;;;;;;10451500;28;20229;-66
2021/10/27 17:21:10;;;;;;;2.67;1.43;;;18.50;71.10;;;;;;10444607;28;20228;-66
2021/10/27 17:26:36;;;;;;;3.00;1.43;;;18.50;71.00;;;;;;10451696;28;20217;-67
2021/10/27 17:31:58;;;;;;;2.42;1.38;;;18.50;71.30;;;;;;10435864;28;20562;-66
2021/10/27 17:37:21;;;;;;;2.40;1.30;;;18.50;70.90;;;;;;10449884;28;20201;-65
2021/10/27 17:42:46;;;;;;;3.17;1.40;;;18.60;70.60;;;;;;10449898;28;20232;-67
2021/10/27 17:48:12;;;;;;;2.77;1.70;;;18.50;70.90;;;;;;10451333;28;20884;-66
2021/10/27 17:59:13;;;;;;;3.03;1.50;;;18.60;70.70;;;;;;10454674;28;20189;-64
2021/10/27 18:04:36;;;;;;;4.17;1.63;;;18.60;70.80;;;;;;10445757;28;20221;-65
2021/10/27 18:09:58;;;;;;;2.70;1.20;;;18.60;70.70;;;;;;10444854;28;20197;-65
2021/10/27 18:15:22;;;;;;;2.67;1.40;;;18.60;70.70;;;;;;10445278;28;20663;-65
2021/10/27 18:20:46;;;;;;;6.63;1.50;;;18.60;70.80;;;;;;10443938;28;20213;-65
2021/10/27 18:37:45;;;;;;;4.50;1.60;;;18.60;70.70;;;;;;10444133;28;20208;-65
2021/10/27 18:43:15;;;;;;;2.57;1.80;;;18.50;70.70;;;;;;10453341;28;20217;-64
2021/10/27 18:48:41;;;;;;;2.37;1.63;;;18.50;70.80;;;;;;10452587;28;20201;-65
2021/10/27 18:59:48;;;;;;;3.60;1.50;;;18.50;70.70;;;;;;10451434;28;20664;-64
2021/10/27 19:11:01;;;;;;;2.57;1.80;;;18.50;70.80;;;;;;10450814;28;20683;-64
2021/10/27 19:16:23;;;;;;;3.43;1.60;;;18.50;70.90;;;;;;10451508;28;20229;-65
2021/10/27 19:21:47;;;;;;;3.13;1.77;;;18.50;70.80;;;;;;10450844;28;20687;-65
2021/10/27 19:27:11;;;;;;;2.97;1.67;;;18.50;70.70;;;;;;10450990;28;20206;-64
2021/10/27 20:12:32;;;;;;;2.30;1.70;;;18.50;70.60;;;;;;10450760;28;20228;-65
2021/10/27 20:52:07;;;;;;;2.23;1.40;;;18.50;70.50;;;;;;10453537;28;20596;-65
2021/10/27 20:57:34;;;;;;;2.80;1.93;;;18.50;70.50;;;;;;10453028;28;20196;-65
2021/10/27 21:14:23;;;;;;;2.43;1.70;;;18.40;69.80;;;;;;10452603;28;20259;-65
2021/10/27 21:19:46;;;;;;;3.00;1.80;;;18.40;69.70;;;;;;10452439;28;20205;-64
2021/10/27 21:25:10;;;;;;;4.43;1.80;;;18.30;69.70;;;;;;10445688;28;20212;-64
2021/10/27 21:47:33;;;;;;;2.87;1.40;;;18.20;70.10;;;;;;10451879;28;20235;-64
2021/10/27 21:52:57;;;;;;;2.57;1.63;;;18.10;70.10;;;;;;10451701;28;20217;-64
2021/10/27 21:58:19;;;;;;;2.00;1.60;;;18.10;70.20;;;;;;10452074;28;20205;-65
2021/10/27 22:03:41;;;;;;;3.97;1.50;;;18.10;70.30;;;;;;10450681;28;20225;-64
2021/10/27 22:09:05;;;;;;;1.97;1.50;;;18.00;70.40;;;;;;10451062;28;20197;-65
2021/10/27 22:14:27;;;;;;;2.10;1.60;;;18.00;70.20;;;;;;10443637;23;20220;-64
2021/10/27 22:19:50;;;;;;;3.40;1.50;;;18.10;70.10;;;;;;10408492;28;20229;-65
2021/10/27 22:25:13;;;;;;;3.33;1.60;;;18.10;69.70;;;;;;10407041;28;20241;-65
2021/10/27 22:30:35;;;;;;;2.07;1.30;;;18.20;69.40;;;;;;10408001;28;20568;-64
2021/10/27 22:35:59;;;;;;;3.00;1.60;;;18.20;69.20;;;;;;10409041;28;20204;-64
2021/10/27 22:41:22;;;;;;;2.13;1.40;;;18.10;69.20;;;;;;10408155;28;20222;-64
2021/10/27 22:46:46;;;;;;;1.43;1.30;;;18.10;69.40;;;;;;10409638;28;20647;-64
2021/10/27 22:52:08;;;;;;;3.07;1.47;;;18.10;69.50;;;;;;10408086;28;20227;-64
2021/10/27 22:57:34;;;;;;;1.90;1.30;;;18.00;69.60;;;;;;10408288;28;20682;-65
2021/10/27 23:03:07;;;;;;;4.30;1.93;;;18.00;69.80;;;;;;10407521;28;20276;-64
2021/10/27 23:42:57;;;;;;;2.77;1.70;;;18.00;69.00;;;;;;10413839;28;20271;-64
2021/10/27 23:48:20;;;;;;;2.63;1.60;;;18.00;69.20;;;;;;10414610;28;20295;-65
2021/10/27 23:53:47;;;;;;;4.30;1.60;;;18.00;68.90;;;;;;10413826;28;20750;-63
